createdAt,value
2023-05-10T00:01:36.582Z,397.05
2023-05-10T00:04:28.125Z,361.30
2023-05-10T00:07:18.554Z,364.33
2023-05-10T00:10:07.431Z,364.48
2023-05-10T00:12:55.572Z,379.25
2023-05-10T00:15:43.843Z,363.77
2023-05-10T00:18:31.824Z,380.67
2023-05-10T00:21:20.012Z,383.38
2023-05-10T00:24:09.391Z,366.85
2023-05-10T00:26:57.365Z,383.48
2023-05-10T00:29:45.785Z,390.95
2023-05-10T00:32:33.771Z,386.35
2023-05-10T00:35:22.759Z,393.00
2023-05-10T00:38:10.707Z,371.63
2023-05-10T00:41:00.251Z,396.52
2023-05-10T00:43:51.919Z,370.95
2023-05-10T00:46:40.165Z,360.88
2023-05-10T00:49:28.602Z,388.15
2023-05-10T00:52:16.582Z,370.60
2023-05-10T00:55:06.695Z,373.30
2023-05-10T00:57:56.179Z,375.23
2023-05-10T01:00:45.935Z,388.23
2023-05-10T01:03:34.332Z,377.30
2023-05-10T01:06:22.846Z,381.75
2023-05-10T01:09:12.574Z,364.67
2023-05-10T01:12:02.933Z,378.23
2023-05-10T01:14:52.970Z,382.38
2023-05-10T01:17:42.785Z,387.65
2023-05-10T01:20:38.360Z,384.27
2023-05-10T01:23:45.387Z,387.27
2023-05-10T01:27:18.114Z,373.95
2023-05-10T01:30:56.998Z,369.88
2023-05-10T01:33:53.217Z,355.60
2023-05-10T01:36:47.984Z,385.85
2023-05-10T01:39:46.332Z,368.73
2023-05-10T01:42:42.643Z,376.92
2023-05-10T01:45:35.646Z,374.33
2023-05-10T01:48:26.669Z,399.05
2023-05-10T01:51:21.843Z,394.42
2023-05-10T01:54:11.808Z,390.95
2023-05-10T01:57:04.415Z,383.48
2023-05-10T01:59:53.253Z,374.50
2023-05-10T02:02:44.213Z,380.45
2023-05-10T02:05:35.167Z,381.63
2023-05-10T02:08:25.858Z,389.00
2023-05-10T02:11:15.775Z,379.27
2023-05-10T02:14:04.674Z,380.77
2023-05-10T02:16:53.876Z,403.40
2023-05-10T02:19:44.082Z,397.35
2023-05-10T02:22:33.341Z,384.35
2023-05-10T02:25:24.254Z,400.17
2023-05-10T02:28:14.252Z,386.92
2023-05-10T02:31:02.989Z,379.52
2023-05-10T02:33:52.256Z,390.50
2023-05-10T02:36:41.457Z,359.58
2023-05-10T02:39:31.743Z,374.73
2023-05-10T02:42:24.461Z,389.90
2023-05-10T02:45:17.473Z,371.27
2023-05-10T02:48:06.208Z,372.90
2023-05-10T02:50:57.937Z,368.52
2023-05-10T02:53:48.194Z,368.95
2023-05-10T02:56:42.567Z,366.17
2023-05-10T02:59:33.773Z,373.58
2023-05-10T03:02:22.607Z,377.10
2023-05-10T03:05:11.039Z,355.90
2023-05-10T03:07:59.076Z,380.20
2023-05-10T03:10:57.486Z,394.90
2023-05-10T03:13:56.311Z,360.40
2023-05-10T03:16:48.965Z,382.95
2023-05-10T03:19:45.488Z,365.45
2023-05-10T03:22:39.003Z,368.45
2023-05-10T03:25:28.351Z,362.98
2023-05-10T03:28:17.517Z,364.98
2023-05-10T03:31:08.075Z,364.75
2023-05-10T03:33:57.901Z,371.95
2023-05-10T03:36:48.156Z,361.27
2023-05-10T03:39:36.665Z,369.25
2023-05-10T03:42:27.159Z,382.30
2023-05-10T03:45:15.295Z,382.73
2023-05-10T03:48:03.378Z,383.67
2023-05-10T03:50:53.295Z,375.50
2023-05-10T03:53:41.263Z,368.42
2023-05-10T03:56:29.628Z,349.98
2023-05-10T03:59:18.025Z,374.23
2023-05-10T04:02:06.045Z,373.08
2023-05-10T04:04:54.408Z,370.80
2023-05-10T04:07:45.232Z,376.92
2023-05-10T04:10:33.579Z,369.40
2023-05-10T04:13:21.649Z,355.45
2023-05-10T04:16:10.391Z,354.83
2023-05-10T04:18:58.363Z,376.25
2023-05-10T04:21:47.157Z,353.10
2023-05-10T04:24:36.520Z,372.90
2023-05-10T04:27:24.432Z,362.90
2023-05-10T04:30:13.312Z,357.45
2023-05-10T04:33:01.336Z,372.25
2023-05-10T04:35:49.534Z,345.30
2023-05-10T04:38:37.577Z,360.40
2023-05-10T04:41:27.286Z,364.48
2023-05-10T04:44:15.205Z,368.60
2023-05-10T04:47:04.153Z,363.83
2023-05-10T04:49:52.525Z,341.88
2023-05-10T04:52:40.446Z,357.75
2023-05-10T04:55:28.775Z,362.45
2023-05-10T04:58:18.092Z,359.45
2023-05-10T05:01:09.575Z,346.95
2023-05-10T05:03:57.725Z,341.02
2023-05-10T05:06:46.072Z,346.88
2023-05-10T05:09:34.242Z,354.75
2023-05-10T05:12:22.442Z,338.35
2023-05-10T05:15:12.776Z,355.15
2023-05-10T05:18:01.033Z,325.38
2023-05-10T05:20:49.293Z,336.48
2023-05-10T05:23:37.284Z,321.10
2023-05-10T05:26:25.715Z,340.63
2023-05-10T05:29:13.635Z,345.92
2023-05-10T05:32:03.384Z,351.35
2023-05-10T05:34:51.940Z,343.50
2023-05-10T05:37:39.916Z,327.38
2023-05-10T05:40:27.892Z,346.92
2023-05-10T05:43:16.186Z,339.42
2023-05-10T05:46:04.557Z,366.20
2023-05-10T05:48:53.851Z,368.20
2023-05-10T05:51:41.986Z,349.95
2023-05-10T05:54:30.463Z,352.30
2023-05-10T05:57:18.522Z,334.10
2023-05-10T06:00:08.135Z,345.73
2023-05-10T06:03:05.765Z,332.02
2023-05-10T06:05:55.026Z,351.73
2023-05-10T06:08:43.182Z,357.58
2023-05-10T06:11:33.096Z,353.05
2023-05-10T06:14:22.169Z,359.55
2023-05-10T06:17:10.365Z,345.95
2023-05-10T06:19:58.318Z,350.98
2023-05-10T06:22:47.799Z,344.42
2023-05-10T06:25:35.682Z,337.92
2023-05-10T06:28:23.956Z,352.13
2023-05-10T06:31:12.807Z,330.23
2023-05-10T06:34:00.988Z,353.45
2023-05-10T06:36:49.132Z,339.80
2023-05-10T06:39:38.735Z,346.98
2023-05-10T06:42:28.292Z,343.23
2023-05-10T06:45:17.068Z,341.63
2023-05-10T06:48:05.958Z,358.98
2023-05-10T06:50:54.004Z,360.83
2023-05-10T06:53:41.959Z,367.38
2023-05-10T06:56:31.217Z,350.05
2023-05-10T06:59:20.635Z,342.23
2023-05-10T07:02:08.951Z,341.15
2023-05-10T07:04:58.417Z,342.65
2023-05-10T07:07:48.687Z,321.55
2023-05-10T07:10:36.674Z,318.67
2023-05-10T07:13:26.267Z,340.02
2023-05-10T07:16:14.257Z,344.05
2023-05-10T07:19:03.450Z,350.67
2023-05-10T07:21:51.757Z,349.40
2023-05-10T07:24:40.009Z,339.05
2023-05-10T07:27:28.003Z,359.45
2023-05-10T07:30:17.380Z,349.67
2023-05-10T07:33:05.623Z,338.08
2023-05-10T07:35:53.540Z,337.73
2023-05-10T07:38:41.896Z,336.35
2023-05-10T07:41:29.832Z,351.15
2023-05-10T07:44:19.745Z,367.85
2023-05-10T07:47:09.072Z,356.10
2023-05-10T07:49:57.410Z,336.63
2023-05-10T07:52:45.638Z,347.05
2023-05-10T07:55:33.591Z,351.85
2023-05-10T07:58:22.031Z,370.00
2023-05-10T08:01:09.926Z,377.92
2023-05-10T08:04:01.187Z,379.55
2023-05-10T08:09:58.733Z,368.40
2023-05-10T08:12:47.213Z,372.77
2023-05-10T08:15:36.871Z,373.98
2023-05-10T08:18:24.878Z,373.30
2023-05-10T08:21:14.613Z,376.67
2023-05-10T08:24:03.231Z,363.30
2023-05-10T08:26:51.205Z,361.75
2023-05-10T08:29:49.639Z,362.08
2023-05-10T08:32:38.950Z,368.70
2023-05-10T08:35:27.325Z,400.92
2023-05-10T08:38:16.947Z,405.17
2023-05-10T08:41:06.248Z,377.00
2023-05-10T08:43:55.684Z,398.65
2023-05-10T08:46:48.556Z,368.27
2023-05-10T08:49:38.992Z,387.80
2023-05-10T08:52:28.438Z,385.67
2023-05-10T08:55:18.709Z,375.50
2023-05-10T08:58:07.215Z,384.75
2023-05-10T09:00:55.809Z,388.88
2023-05-10T09:03:44.525Z,366.02
2023-05-10T09:06:33.097Z,342.83
2023-05-10T09:09:22.383Z,377.20
2023-05-10T09:12:12.532Z,380.88
2023-05-10T09:17:51.321Z,394.33
2023-05-10T09:20:40.182Z,394.13
2023-05-10T09:23:33.045Z,386.50
2023-05-10T09:26:24.486Z,396.60
2023-05-10T09:29:15.995Z,403.58
2023-05-10T09:32:05.511Z,411.48
2023-05-10T09:34:53.671Z,373.80
2023-05-10T09:37:43.497Z,378.35
2023-05-10T09:40:32.680Z,379.02
2023-05-10T09:43:21.781Z,355.05
2023-05-10T09:46:12.612Z,367.88
2023-05-10T09:49:00.618Z,383.45
2023-05-10T09:51:48.995Z,385.70
2023-05-10T09:54:37.694Z,394.48
2023-05-10T09:57:26.845Z,417.45
2023-05-10T10:00:19.938Z,391.60
2023-05-10T10:03:15.071Z,383.42
2023-05-10T10:06:03.553Z,359.27
2023-05-10T10:08:52.594Z,380.40
2023-05-10T10:11:42.399Z,405.92
2023-05-10T10:14:30.770Z,389.92
2023-05-10T10:17:19.788Z,384.95
2023-05-10T10:20:12.227Z,369.77
2023-05-10T10:23:00.438Z,382.70
2023-05-10T10:25:50.214Z,363.63
2023-05-10T10:28:43.228Z,395.15
2023-05-10T10:31:40.039Z,395.80
2023-05-10T10:34:29.881Z,393.13
2023-05-10T10:37:19.762Z,400.35
2023-05-10T10:40:24.978Z,371.95
2023-05-10T10:43:26.621Z,363.75
2023-05-10T10:46:16.523Z,388.00
2023-05-10T10:49:11.911Z,375.52
2023-05-10T10:52:16.737Z,376.48
2023-05-10T10:55:09.109Z,371.65
2023-05-10T10:58:03.423Z,384.85
2023-05-10T11:00:51.713Z,382.83
2023-05-10T11:03:40.219Z,349.25
2023-05-10T11:06:32.874Z,376.48
2023-05-10T11:09:21.704Z,387.08
2023-05-10T11:12:11.779Z,390.98
2023-05-10T11:14:59.940Z,388.05
2023-05-10T11:17:53.193Z,374.05
2023-05-10T11:20:41.462Z,339.40
2023-05-10T11:23:33.703Z,320.17
2023-05-10T11:26:24.152Z,320.00
2023-05-10T11:29:15.100Z,342.70
2023-05-10T11:32:03.520Z,318.48
2023-05-10T11:34:51.427Z,326.63
2023-05-10T11:37:42.525Z,325.25
2023-05-10T11:40:30.525Z,335.92
2023-05-10T11:43:18.706Z,313.35
2023-05-10T11:46:09.207Z,327.75
2023-05-10T11:49:01.843Z,331.17
2023-05-10T11:51:49.795Z,324.40
2023-05-10T11:54:38.140Z,331.10
2023-05-10T11:57:29.221Z,328.33
2023-05-10T12:00:18.039Z,321.77
2023-05-10T12:03:08.255Z,325.25
2023-05-10T12:05:56.966Z,327.85
2023-05-10T12:08:47.625Z,328.40
2023-05-10T12:11:39.660Z,323.13
2023-05-10T12:14:29.380Z,335.67
2023-05-10T12:17:17.271Z,323.65
2023-05-10T12:20:23.627Z,326.60
2023-05-10T12:23:11.975Z,315.80
2023-05-10T12:26:04.186Z,304.05
2023-05-10T12:28:52.404Z,281.33
2023-05-10T12:31:51.463Z,285.63
2023-05-10T12:34:39.704Z,244.93
2023-05-10T12:37:31.153Z,260.90
2023-05-10T12:40:19.610Z,255.05
2023-05-10T12:43:07.534Z,262.80
2023-05-10T12:45:55.915Z,266.25
2023-05-10T12:48:45.672Z,286.25
2023-05-10T12:51:33.641Z,262.27
2023-05-10T12:54:22.984Z,288.85
2023-05-10T12:57:11.207Z,292.05
2023-05-10T12:59:59.253Z,267.48
2023-05-10T13:02:47.231Z,312.67
2023-05-10T13:05:35.407Z,293.23
2023-05-10T13:08:23.401Z,304.42
2023-05-10T13:11:13.040Z,287.08
2023-05-10T13:14:01.408Z,285.02
2023-05-10T13:16:49.417Z,294.60
2023-05-10T13:19:37.414Z,295.92
2023-05-10T13:22:36.274Z,257.35
2023-05-10T13:25:27.716Z,230.82
2023-05-10T13:28:16.981Z,249.40
2023-05-10T13:31:05.213Z,257.55
2023-05-10T13:33:53.156Z,242.57
2023-05-10T13:36:41.255Z,238.00
2023-05-10T13:39:31.930Z,223.07
2023-05-10T13:42:20.085Z,226.27
2023-05-10T13:45:10.701Z,245.02
2023-05-10T13:47:58.665Z,254.73
2023-05-10T13:50:47.276Z,243.50
2023-05-10T13:53:35.209Z,246.98
2023-05-10T13:56:23.324Z,246.57
2023-05-10T13:59:11.272Z,251.55
2023-05-10T14:02:01.069Z,247.55
2023-05-10T14:04:49.333Z,239.35
2023-05-10T14:07:37.220Z,243.10
2023-05-10T14:10:25.135Z,233.45
2023-05-10T14:13:13.089Z,243.82
2023-05-10T14:16:02.244Z,231.48
2023-05-10T14:18:51.552Z,242.48
2023-05-10T14:21:39.908Z,234.73
2023-05-10T14:24:27.831Z,228.73
2023-05-10T14:27:16.158Z,227.73
2023-05-10T14:30:04.588Z,224.50
2023-05-10T14:32:54.863Z,231.57
2023-05-10T14:35:44.172Z,221.18
2023-05-10T14:38:32.097Z,222.32
2023-05-10T14:41:20.450Z,227.35
2023-05-10T14:44:08.435Z,206.25
2023-05-10T14:46:56.844Z,225.40
2023-05-10T14:49:44.765Z,236.82
2023-05-10T14:52:34.447Z,237.63
2023-05-10T14:55:22.460Z,221.55
2023-05-10T14:58:10.603Z,241.43
2023-05-10T15:00:58.911Z,206.63
2023-05-10T15:03:47.241Z,229.63
2023-05-10T15:06:36.804Z,225.57
2023-05-10T15:09:26.113Z,218.75
2023-05-10T15:12:14.468Z,208.98
2023-05-10T15:15:03.025Z,195.95
2023-05-10T15:17:51.411Z,186.50
2023-05-10T15:20:39.388Z,207.15
2023-05-10T15:23:27.799Z,195.70
2023-05-10T15:26:17.322Z,193.38
2023-05-10T15:29:05.251Z,179.75
2023-05-10T15:31:53.720Z,166.68
2023-05-10T15:34:41.932Z,171.60
2023-05-10T15:37:30.040Z,175.43
2023-05-10T15:40:18.185Z,166.57
2023-05-10T15:43:07.917Z,168.85
2023-05-10T15:45:55.786Z,175.73
2023-05-10T15:48:43.959Z,168.27
2023-05-10T15:51:35.369Z,178.82
2023-05-10T15:54:24.493Z,174.45
2023-05-10T15:57:12.785Z,180.35
2023-05-10T16:00:02.327Z,169.40
2023-05-10T16:03:00.288Z,171.95
2023-05-10T16:05:48.427Z,167.77
2023-05-10T16:08:36.580Z,164.60
2023-05-10T16:11:24.566Z,174.18
2023-05-10T16:14:12.697Z,170.88
2023-05-10T16:17:03.132Z,172.63
2023-05-10T16:19:51.189Z,155.23
2023-05-10T16:22:39.415Z,150.20
2023-05-10T16:25:27.298Z,164.55
2023-05-10T16:28:15.379Z,166.02
2023-05-10T16:31:03.768Z,153.10
2023-05-10T16:33:53.164Z,138.77
2023-05-10T16:36:41.080Z,152.68
2023-05-10T16:39:29.238Z,162.27
2023-05-10T16:42:17.836Z,146.32
2023-05-10T16:45:09.012Z,151.57
2023-05-10T16:47:57.220Z,141.70
2023-05-10T16:50:46.743Z,162.63
2023-05-10T16:53:34.729Z,149.75
2023-05-10T16:56:23.280Z,162.30
2023-05-10T16:59:11.519Z,159.93
2023-05-10T17:01:59.521Z,152.40
2023-05-10T17:04:47.696Z,145.63
2023-05-10T17:07:37.107Z,147.30
2023-05-10T17:10:25.007Z,154.65
2023-05-10T17:13:13.386Z,158.60
2023-05-10T17:16:03.477Z,155.20
2023-05-10T17:18:51.961Z,169.60
2023-05-10T17:21:39.914Z,161.45
2023-05-10T17:24:29.753Z,159.90
2023-05-10T17:27:17.652Z,156.45
2023-05-10T17:30:06.995Z,175.00
2023-05-10T17:32:55.032Z,183.18
2023-05-10T17:35:46.538Z,202.75
2023-05-10T17:38:34.489Z,215.00
2023-05-10T17:41:24.828Z,215.52
2023-05-10T17:44:13.347Z,233.55
2023-05-10T17:47:02.263Z,258.38
2023-05-10T17:49:50.188Z,248.35
2023-05-10T17:52:38.636Z,269.67
2023-05-10T17:55:27.095Z,280.75
2023-05-10T17:58:16.649Z,274.80
2023-05-10T18:01:04.792Z,290.80
2023-05-10T18:03:53.393Z,292.92
2023-05-10T18:06:41.610Z,284.50
2023-05-10T18:09:30.501Z,309.70
2023-05-10T18:12:18.723Z,310.50
2023-05-10T18:15:09.567Z,315.45
2023-05-10T18:17:57.540Z,337.95
2023-05-10T18:20:46.806Z,332.85
2023-05-10T18:23:34.728Z,339.80
2023-05-10T18:26:23.021Z,328.65
2023-05-10T18:29:10.962Z,339.40
2023-05-10T18:32:00.588Z,346.30
2023-05-10T18:34:48.506Z,341.45
2023-05-10T18:37:38.557Z,361.77
2023-05-10T18:40:28.535Z,344.75
2023-05-10T18:43:16.794Z,352.67
2023-05-10T18:46:04.890Z,344.45
2023-05-10T18:48:55.548Z,354.83
2023-05-10T18:51:43.496Z,353.77
2023-05-10T18:54:31.721Z,326.88
2023-05-10T18:57:21.024Z,335.23
2023-05-10T19:00:11.480Z,333.20
2023-05-10T19:02:59.477Z,350.75
2023-05-10T19:05:49.417Z,349.25
2023-05-10T19:08:37.345Z,368.17
2023-05-10T19:11:26.199Z,353.08
2023-05-10T19:14:14.216Z,344.23
2023-05-10T19:17:02.492Z,380.65
2023-05-10T19:19:50.620Z,381.58
2023-05-10T19:25:30.756Z,373.00
2023-05-10T19:28:19.085Z,361.20
2023-05-10T19:31:08.762Z,378.30
2023-05-10T19:33:59.985Z,344.73
2023-05-10T19:36:48.635Z,373.13
2023-05-10T19:39:37.954Z,337.60
2023-05-10T19:42:25.954Z,340.13
2023-05-10T19:45:15.954Z,359.10
2023-05-10T19:48:04.513Z,334.70
2023-05-10T19:50:53.450Z,325.60
2023-05-10T19:53:44.579Z,320.05
2023-05-10T19:56:34.259Z,325.52
2023-05-10T19:59:22.254Z,329.73
2023-05-10T20:02:10.628Z,335.23
2023-05-10T20:04:58.668Z,325.27
2023-05-10T20:07:46.914Z,323.02
2023-05-10T20:10:34.798Z,340.05
2023-05-10T20:13:24.724Z,322.13
2023-05-10T20:16:12.677Z,324.95
2023-05-10T20:19:01.401Z,339.98
2023-05-10T20:21:49.349Z,332.80
2023-05-10T20:24:37.675Z,337.42
2023-05-10T20:27:25.666Z,327.17
2023-05-10T20:30:15.928Z,302.77
2023-05-10T20:33:04.207Z,324.10
2023-05-10T20:35:52.404Z,318.63
2023-05-10T20:38:40.324Z,324.42
2023-05-10T20:41:28.488Z,322.30
2023-05-10T20:44:16.436Z,325.52
2023-05-10T20:47:06.787Z,315.08
2023-05-10T20:49:54.755Z,326.38
2023-05-10T20:52:42.963Z,332.67
2023-05-10T20:55:30.907Z,331.90
2023-05-10T20:58:19.125Z,320.80
2023-05-10T21:01:07.050Z,314.10
2023-05-10T21:03:56.347Z,320.30
2023-05-10T21:06:44.608Z,342.25
2023-05-10T21:09:32.895Z,346.50
2023-05-10T21:12:20.842Z,357.05
2023-05-10T21:15:10.404Z,346.95
2023-05-10T21:17:59.762Z,344.83
2023-05-10T21:20:49.618Z,363.85
2023-05-10T21:23:37.537Z,357.05
2023-05-10T21:26:26.117Z,371.20
2023-05-10T21:29:14.137Z,343.65
2023-05-10T21:32:02.610Z,341.60
2023-05-10T21:34:51.083Z,376.55
2023-05-10T21:37:40.682Z,369.80
2023-05-10T21:40:29.629Z,345.85
2023-05-10T21:43:17.792Z,372.02
2023-05-10T21:46:05.907Z,378.85
2023-05-10T21:48:54.131Z,351.88
2023-05-10T21:51:42.049Z,385.73
2023-05-10T21:54:31.689Z,358.65
2023-05-10T21:57:21.366Z,349.95
2023-05-10T22:00:11.371Z,374.30
2023-05-10T22:03:00.714Z,366.35
2023-05-10T22:05:49.099Z,364.77
2023-05-10T22:08:37.032Z,364.13
2023-05-10T22:11:26.773Z,386.25
2023-05-10T22:14:14.739Z,381.65
2023-05-10T22:17:02.693Z,387.90
2023-05-10T22:19:50.641Z,380.73
2023-05-10T22:22:38.720Z,359.30
2023-05-10T22:25:27.030Z,371.05
2023-05-10T22:28:16.481Z,363.00
2023-05-10T22:31:04.684Z,372.33
2023-05-10T22:33:53.069Z,358.38
2023-05-10T22:36:41.013Z,366.98
2023-05-10T22:39:29.233Z,360.45
2023-05-10T22:42:17.467Z,359.67
2023-05-10T22:45:08.813Z,364.40
2023-05-10T22:47:56.791Z,342.35
2023-05-10T22:50:45.010Z,367.45
2023-05-10T22:53:32.900Z,370.92
2023-05-10T22:56:21.949Z,348.90
2023-05-10T22:59:10.071Z,364.92
2023-05-10T23:02:00.220Z,343.77
2023-05-10T23:04:48.233Z,347.08
2023-05-10T23:07:36.904Z,336.17
2023-05-10T23:10:25.118Z,358.33
2023-05-10T23:13:13.319Z,326.45
2023-05-10T23:16:05.998Z,328.45
2023-05-10T23:18:55.561Z,346.85
2023-05-10T23:21:43.533Z,330.98
2023-05-10T23:24:31.451Z,326.75
2023-05-10T23:27:19.333Z,342.45
2023-05-10T23:30:08.872Z,327.48
2023-05-10T23:32:56.831Z,317.95
2023-05-10T23:35:46.304Z,352.38
2023-05-10T23:38:34.244Z,312.20
2023-05-10T23:41:22.789Z,319.77
2023-05-10T23:44:10.832Z,312.48
2023-05-10T23:46:58.744Z,331.48
2023-05-10T23:49:46.644Z,343.73
2023-05-10T23:52:36.379Z,315.23
2023-05-10T23:55:24.262Z,315.65
2023-05-10T23:58:12.554Z,317.73
